createdAt,value
2022-11-07T00:00:14.019Z,1.25
2022-11-07T00:05:15.620Z,0.88
2022-11-07T00:10:17.281Z,0.93
2022-11-07T00:15:18.824Z,0.95
2022-11-07T00:20:20.408Z,1.05
2022-11-07T00:25:21.932Z,1.20
2022-11-07T00:30:23.545Z,1.55
2022-11-07T00:35:25.220Z,1.00
2022-11-07T00:40:26.727Z,1.20
2022-11-07T00:45:28.380Z,1.10
2022-11-07T00:50:29.873Z,1.00
2022-11-07T00:55:32.475Z,1.00
2022-11-07T01:00:34.041Z,1.17
2022-11-07T01:05:35.743Z,1.30
2022-11-07T01:10:41.750Z,1.27
2022-11-07T01:15:43.282Z,0.70
2022-11-07T01:20:44.844Z,1.13
2022-11-07T01:25:46.389Z,1.10
2022-11-07T01:30:47.934Z,0.93
2022-11-07T01:35:49.733Z,0.93
2022-11-07T01:40:51.299Z,0.60
2022-11-07T01:45:53.082Z,1.10
2022-11-07T01:50:54.690Z,1.00
2022-11-07T01:55:56.324Z,1.02
2022-11-07T02:00:58.194Z,0.80
2022-11-07T02:06:05.503Z,0.98
2022-11-07T02:11:07.391Z,0.82
2022-11-07T02:16:09.037Z,0.90
2022-11-07T02:21:27.382Z,1.00
2022-11-07T02:26:29.362Z,0.90
2022-11-07T02:31:30.905Z,1.48
2022-11-07T02:36:33.295Z,1.08
2022-11-07T02:41:35.078Z,1.60
2022-11-07T02:46:37.222Z,2.83
2022-11-07T02:51:38.995Z,1.63
2022-11-07T02:56:40.649Z,1.50
2022-11-07T03:01:42.255Z,1.60
2022-11-07T03:06:43.887Z,1.63
2022-11-07T03:11:45.427Z,2.10
2022-11-07T03:16:46.925Z,1.83
2022-11-07T03:21:50.372Z,2.25
2022-11-07T03:26:51.923Z,1.70
2022-11-07T03:31:54.283Z,1.77
2022-11-07T03:36:55.867Z,2.85
2022-11-07T03:41:57.471Z,2.30
2022-11-07T03:46:58.989Z,2.00
2022-11-07T03:52:00.608Z,1.65
2022-11-07T03:57:02.189Z,2.22
2022-11-07T04:02:03.879Z,1.95
2022-11-07T04:07:05.639Z,2.08
2022-11-07T04:12:07.585Z,2.53
2022-11-07T04:17:11.310Z,2.40
2022-11-07T04:22:12.888Z,2.30
2022-11-07T04:27:15.780Z,2.20
2022-11-07T04:32:17.322Z,2.15
2022-11-07T04:37:19.398Z,2.25
2022-11-07T04:42:21.148Z,2.78
2022-11-07T04:47:22.721Z,2.13
2022-11-07T04:52:24.430Z,2.85
2022-11-07T04:57:26.002Z,2.60
2022-11-07T05:02:27.746Z,2.88
2022-11-07T05:07:29.427Z,2.75
2022-11-07T05:12:30.935Z,3.47
2022-11-07T05:17:32.572Z,1.73
2022-11-07T05:22:34.066Z,2.95
2022-11-07T05:27:35.587Z,3.08
2022-11-07T05:32:37.172Z,1.77
2022-11-07T05:37:38.721Z,1.77
2022-11-07T05:42:40.654Z,1.98
2022-11-07T05:47:42.150Z,2.10
2022-11-07T05:52:43.719Z,1.85
2022-11-07T05:57:46.019Z,2.47
2022-11-07T06:02:58.443Z,2.05
2022-11-07T06:08:00.136Z,1.67
2022-11-07T06:13:03.522Z,1.88
2022-11-07T06:18:07.548Z,1.65
2022-11-07T06:23:09.768Z,2.25
2022-11-07T06:28:12.578Z,1.90
2022-11-07T06:33:16.975Z,1.75
2022-11-07T06:38:18.848Z,1.67
2022-11-07T06:43:20.924Z,1.40
2022-11-07T06:48:22.601Z,2.05
2022-11-07T06:53:24.167Z,2.00
2022-11-07T06:58:25.745Z,1.63
2022-11-07T07:03:27.315Z,1.42
2022-11-07T07:08:29.158Z,1.30
2022-11-07T07:13:30.742Z,2.17
2022-11-07T07:18:32.634Z,1.55
2022-11-07T07:23:35.405Z,1.55
2022-11-07T07:28:37.029Z,1.27
2022-11-07T07:33:38.747Z,1.38
2022-11-07T07:38:40.659Z,2.20
2022-11-07T07:43:42.385Z,1.35
2022-11-07T07:48:43.961Z,1.50
2022-11-07T07:53:45.541Z,1.60
2022-11-07T07:58:47.443Z,1.45
2022-11-07T08:04:01.321Z,1.63
2022-11-07T08:09:05.007Z,2.25
2022-11-07T08:14:06.591Z,1.50
2022-11-07T08:19:08.333Z,1.10
2022-11-07T08:24:09.938Z,1.90
2022-11-07T08:29:11.540Z,1.52
2022-11-07T08:34:13.471Z,1.38
2022-11-07T08:39:15.016Z,1.70
2022-11-07T08:44:16.485Z,1.75
2022-11-07T08:49:18.086Z,0.93
2022-11-07T08:54:19.617Z,1.13
2022-11-07T08:59:21.443Z,0.77
2022-11-07T09:04:23.095Z,0.98
2022-11-07T09:09:25.086Z,0.90
2022-11-07T09:14:26.623Z,0.95
2022-11-07T09:19:28.224Z,1.00
2022-11-07T09:24:29.865Z,1.38
2022-11-07T09:29:31.507Z,0.90
2022-11-07T09:34:33.046Z,1.55
2022-11-07T09:39:34.551Z,0.80
2022-11-07T09:44:54.090Z,0.95
2022-11-07T09:50:03.904Z,1.05
2022-11-07T09:55:20.673Z,1.25
2022-11-07T10:05:36.527Z,1.40
2022-11-07T10:10:55.484Z,1.05
2022-11-07T10:16:13.308Z,1.63
2022-11-07T10:21:37.096Z,1.08
2022-11-07T10:26:37.178Z,0.90
2022-11-07T10:31:43.656Z,1.02
2022-11-07T10:36:45.269Z,1.02
2022-11-07T10:41:59.022Z,1.27
2022-11-07T10:47:00.687Z,0.63
2022-11-07T10:52:14.491Z,0.75
2022-11-07T10:57:18.927Z,0.60
2022-11-07T11:02:23.493Z,1.15
2022-11-07T11:07:32.729Z,0.68
2022-11-07T11:12:34.876Z,0.60
2022-11-07T11:17:36.572Z,0.65
2022-11-07T11:22:41.627Z,0.38
2022-11-07T11:27:47.999Z,0.40
2022-11-07T11:33:03.997Z,0.40
2022-11-07T11:38:11.750Z,0.40
2022-11-07T11:43:22.625Z,0.30
2022-11-07T11:48:29.513Z,0.90
2022-11-07T11:53:31.125Z,0.40
2022-11-07T11:58:32.527Z,0.73
2022-11-07T12:04:05.397Z,0.50
2022-11-07T12:09:27.677Z,1.05
2022-11-07T12:14:43.104Z,1.00
2022-11-07T12:20:13.919Z,0.70
2022-11-07T12:25:29.831Z,0.50
2022-11-07T12:30:53.013Z,0.43
2022-11-07T12:36:02.184Z,0.30
2022-11-07T12:41:11.788Z,0.20
2022-11-07T12:46:25.290Z,0.50
2022-11-07T12:52:02.345Z,0.30
2022-11-07T13:02:49.950Z,0.28
2022-11-07T13:08:04.343Z,0.47
2022-11-07T13:13:14.853Z,0.30
2022-11-07T13:18:27.511Z,0.20
2022-11-07T13:23:29.656Z,0.35
2022-11-07T13:28:36.999Z,0.38
2022-11-07T13:33:38.630Z,0.40
2022-11-07T13:38:51.540Z,0.52
2022-11-07T13:43:57.721Z,0.40
2022-11-07T13:49:20.693Z,0.50
2022-11-07T13:54:37.416Z,0.50
2022-11-07T13:59:52.239Z,0.40
2022-11-07T14:05:15.158Z,0.57
2022-11-07T14:10:31.697Z,0.70
2022-11-07T14:15:34.616Z,0.53
2022-11-07T14:20:36.212Z,1.02
2022-11-07T14:25:37.771Z,1.17
2022-11-07T14:30:41.923Z,0.77
2022-11-07T14:35:48.794Z,1.00
2022-11-07T14:40:54.982Z,0.98
2022-11-07T14:46:12.379Z,0.98
2022-11-07T14:51:18.752Z,0.57
2022-11-07T14:56:25.784Z,0.57
2022-11-07T15:01:33.022Z,0.75
2022-11-07T15:06:43.432Z,0.80
2022-11-07T15:11:59.812Z,0.95
2022-11-07T15:17:02.892Z,7.18
2022-11-07T15:22:05.528Z,8.75
2022-11-07T15:27:13.313Z,3.03
2022-11-07T15:32:21.329Z,4.88
2022-11-07T15:37:25.497Z,7.88
2022-11-07T15:42:27.006Z,2.78
2022-11-07T15:47:28.683Z,1.13
2022-11-07T15:52:30.176Z,1.10
2022-11-07T15:57:33.373Z,1.00
2022-11-07T16:02:34.962Z,1.13
2022-11-07T16:07:36.895Z,1.00
2022-11-07T16:12:38.439Z,1.48
2022-11-07T16:17:40.189Z,1.33
2022-11-07T16:22:45.485Z,1.10
2022-11-07T16:27:58.524Z,1.45
2022-11-07T16:33:00.092Z,1.13
2022-11-07T16:38:01.702Z,1.00
2022-11-07T16:43:03.220Z,0.95
2022-11-07T16:48:05.786Z,1.20
2022-11-07T16:53:12.325Z,1.02
2022-11-07T16:58:21.312Z,1.35
2022-11-07T17:03:23.473Z,1.30
2022-11-07T17:08:30.884Z,1.13
2022-11-07T17:13:32.577Z,1.25
2022-11-07T17:18:34.225Z,1.40
2022-11-07T17:23:35.803Z,1.30
2022-11-07T17:28:37.392Z,1.30
2022-11-07T17:33:38.918Z,1.60
2022-11-07T17:38:40.446Z,1.30
2022-11-07T17:43:42.015Z,1.40
2022-11-07T17:48:47.276Z,0.82
2022-11-07T17:53:49.356Z,1.30
2022-11-07T17:58:54.692Z,1.50
2022-11-07T18:03:56.414Z,1.40
2022-11-07T18:08:58.799Z,1.25
2022-11-07T18:14:01.429Z,1.10
2022-11-07T18:19:04.098Z,1.50
2022-11-07T18:24:06.184Z,1.30
2022-11-07T18:29:10.719Z,2.55
2022-11-07T18:34:13.533Z,2.85
2022-11-07T18:39:18.162Z,9.35
2022-11-07T18:44:20.016Z,5.60
2022-11-07T18:49:21.533Z,2.92
2022-11-07T18:54:23.214Z,18.45
2022-11-07T18:59:24.758Z,15.93
2022-11-07T19:04:26.422Z,4.85
2022-11-07T19:09:31.152Z,3.10
2022-11-07T19:14:33.420Z,2.25
2022-11-07T19:19:35.176Z,3.30
2022-11-07T19:24:36.855Z,2.50
2022-11-07T19:29:38.565Z,2.17
2022-11-07T19:34:40.241Z,2.67
2022-11-07T19:39:43.055Z,2.60
2022-11-07T19:44:50.480Z,2.25
2022-11-07T19:49:53.470Z,2.10
2022-11-07T19:54:55.350Z,2.55
2022-11-07T19:59:56.973Z,2.95
2022-11-07T20:04:58.509Z,2.45
2022-11-07T20:10:00.245Z,2.70
2022-11-07T20:15:01.917Z,2.88
2022-11-07T20:20:08.329Z,3.15
2022-11-07T20:25:12.465Z,3.13
2022-11-07T20:30:14.476Z,3.30
2022-11-07T20:35:16.044Z,2.63
2022-11-07T20:40:17.707Z,2.58
2022-11-07T20:45:19.258Z,4.03
2022-11-07T20:50:20.762Z,3.80
2022-11-07T20:55:22.456Z,3.58
2022-11-07T21:00:24.311Z,2.90
2022-11-07T21:05:26.089Z,3.70
2022-11-07T21:10:27.717Z,3.22
2022-11-07T21:15:29.352Z,3.38
2022-11-07T21:20:31.057Z,4.00
2022-11-07T21:25:39.959Z,3.50
2022-11-07T21:30:41.542Z,3.20
2022-11-07T21:35:43.114Z,3.13
2022-11-07T21:40:44.774Z,3.40
2022-11-07T21:45:46.563Z,3.67
2022-11-07T21:50:48.136Z,3.83
2022-11-07T21:55:49.698Z,4.22
2022-11-07T22:00:51.307Z,4.10
2022-11-07T22:05:52.861Z,3.55
2022-11-07T22:10:54.523Z,4.10
2022-11-07T22:16:08.232Z,4.32
2022-11-07T22:21:12.377Z,4.53
2022-11-07T22:26:15.546Z,4.85
2022-11-07T22:31:20.178Z,4.90
2022-11-07T22:36:21.863Z,5.18
2022-11-07T22:41:25.668Z,4.18
2022-11-07T22:46:30.592Z,4.22
2022-11-07T22:51:34.602Z,4.72
2022-11-07T22:56:37.207Z,4.10
2022-11-07T23:01:41.337Z,4.65
2022-11-07T23:06:43.036Z,3.97
2022-11-07T23:11:46.489Z,3.47
2022-11-07T23:16:53.830Z,3.38
2022-11-07T23:21:55.997Z,3.30
2022-11-07T23:26:57.511Z,3.35
2022-11-07T23:31:59.059Z,3.45
2022-11-07T23:37:00.732Z,3.17
2022-11-07T23:42:02.291Z,2.63
2022-11-07T23:47:03.914Z,3.05
2022-11-07T23:52:05.633Z,3.28
2022-11-07T23:57:07.159Z,3.47
